createdAt,value
2018-08-11T00:00:31.394Z,75.23
2018-08-11T00:03:01.141Z,74.64
2018-08-11T00:05:30.938Z,75.04
2018-08-11T00:08:00.949Z,74.85
2018-08-11T00:10:30.709Z,75.61
2018-08-11T00:14:29.399Z,75.40
2018-08-11T00:16:59.392Z,75.46
2018-08-11T00:19:29.162Z,75.65
2018-08-11T00:21:58.923Z,75.23
2018-08-11T00:24:28.816Z,75.96
2018-08-11T00:26:58.673Z,75.65
2018-08-11T00:29:28.456Z,75.99
2018-08-11T00:32:01.692Z,76.75
2018-08-11T00:34:31.786Z,76.66
2018-08-11T00:37:03.346Z,76.30
2018-08-11T00:39:33.124Z,76.39
2018-08-11T00:42:03.031Z,76.20
2018-08-11T00:44:32.879Z,77.23
2018-08-11T00:47:03.027Z,77.28
2018-08-11T00:49:32.823Z,77.24
2018-08-11T00:52:02.832Z,77.29
2018-08-11T00:54:34.170Z,77.98
2018-08-11T00:57:04.223Z,77.13
2018-08-11T00:59:33.992Z,76.14
2018-08-11T01:02:04.000Z,76.84
2018-08-11T01:04:33.844Z,76.77
2018-08-11T01:07:03.563Z,77.02
2018-08-11T01:09:33.425Z,77.13
2018-08-11T01:12:03.220Z,78.04
2018-08-11T01:17:03.283Z,77.07
2018-08-11T01:19:33.986Z,77.30
2018-08-11T01:22:03.951Z,77.01
2018-08-11T01:24:33.741Z,77.62
2018-08-11T01:27:04.515Z,78.21
2018-08-11T01:29:35.284Z,77.41
2018-08-11T01:32:07.005Z,78.29
2018-08-11T01:34:38.086Z,77.67
2018-08-11T01:37:09.261Z,77.02
2018-08-11T01:39:39.077Z,77.22
2018-08-11T01:42:08.876Z,77.48
2018-08-11T01:44:42.114Z,77.25
2018-08-11T01:47:13.030Z,77.28
2018-08-11T01:49:43.804Z,76.83
2018-08-11T01:52:13.906Z,76.50
2018-08-11T01:54:44.221Z,75.78
2018-08-11T01:57:13.983Z,74.96
2018-08-11T01:59:43.825Z,74.67
2018-08-11T02:02:13.725Z,74.63
2018-08-11T02:04:43.519Z,74.83
2018-08-11T02:07:13.392Z,73.66
2018-08-11T02:09:43.243Z,73.85
2018-08-11T02:12:13.131Z,72.93
2018-08-11T02:14:42.947Z,72.31
2018-08-11T02:17:15.666Z,71.67
2018-08-11T02:19:48.217Z,71.33
2018-08-11T02:22:18.071Z,71.30
2018-08-11T02:24:48.094Z,71.33
2018-08-11T02:27:28.801Z,71.55
2018-08-11T02:29:58.567Z,71.40
2018-08-11T02:32:28.342Z,71.19
2018-08-11T02:34:58.266Z,70.88
2018-08-11T02:37:28.199Z,71.40
2018-08-11T02:39:58.021Z,71.07
2018-08-11T02:42:27.781Z,71.19
2018-08-11T02:45:01.435Z,71.22
2018-08-11T02:47:32.454Z,70.80
2018-08-11T02:50:03.257Z,71.35
2018-08-11T02:52:33.089Z,70.68
2018-08-11T02:55:02.810Z,70.22
2018-08-11T02:57:33.028Z,70.34
2018-08-11T03:00:02.937Z,70.03
2018-08-11T03:02:32.735Z,69.85
2018-08-11T03:05:02.634Z,69.47
2018-08-11T03:07:34.631Z,69.64
2018-08-11T03:10:04.559Z,69.62
2018-08-11T03:12:34.382Z,69.02
2018-08-11T03:15:04.122Z,69.16
2018-08-11T03:17:34.537Z,69.75
2018-08-11T03:20:04.538Z,70.48
2018-08-11T03:22:35.221Z,70.53
2018-08-11T03:25:05.687Z,70.41
2018-08-11T03:27:35.712Z,70.96
2018-08-11T03:30:05.842Z,71.05
2018-08-11T03:32:37.760Z,72.15
2018-08-11T03:35:07.953Z,71.89
2018-08-11T03:37:40.606Z,71.91
2018-08-11T03:40:12.240Z,72.19
2018-08-11T03:42:42.661Z,71.67
2018-08-11T03:45:16.981Z,70.77
2018-08-11T03:47:46.855Z,70.90
2018-08-11T03:50:17.709Z,70.38
2018-08-11T03:52:49.474Z,70.52
2018-08-11T03:55:19.561Z,70.16
2018-08-11T03:57:49.577Z,68.29
2018-08-11T04:00:19.231Z,68.00
2018-08-11T04:02:49.058Z,68.58
2018-08-11T04:05:19.165Z,64.13
2018-08-11T04:07:49.125Z,60.75
2018-08-11T04:10:18.850Z,57.79
2018-08-11T04:12:50.027Z,54.06
2018-08-11T04:15:20.044Z,54.02
2018-08-11T04:17:50.318Z,51.34
2018-08-11T04:20:20.351Z,51.78
2018-08-11T04:22:50.679Z,51.95
2018-08-11T04:25:20.618Z,51.97
2018-08-11T04:27:50.435Z,56.31
2018-08-11T04:30:20.559Z,56.75
2018-08-11T04:32:50.663Z,55.14
2018-08-11T04:35:21.727Z,52.01
2018-08-11T04:37:53.079Z,47.48
2018-08-11T04:40:23.361Z,47.77
2018-08-11T04:42:53.458Z,48.13
2018-08-11T04:45:24.632Z,51.25
2018-08-11T04:48:03.338Z,50.30
2018-08-11T04:50:33.873Z,52.48
2018-08-11T04:53:04.593Z,50.73
2018-08-11T04:55:34.373Z,47.04
2018-08-11T04:58:04.162Z,45.10
2018-08-11T05:00:34.909Z,43.38
2018-08-11T05:03:04.957Z,43.47
2018-08-11T05:05:34.655Z,42.85
2018-08-11T05:08:04.283Z,41.31
2018-08-11T05:10:34.003Z,43.32
2018-08-11T05:13:03.685Z,42.53
2018-08-11T05:15:33.555Z,42.09
2018-08-11T05:18:03.366Z,40.20
2018-08-11T05:20:34.160Z,41.40
2018-08-11T05:23:06.551Z,41.04
2018-08-11T05:25:36.231Z,40.90
2018-08-11T05:28:06.106Z,40.37
2018-08-11T05:30:36.133Z,38.53
2018-08-11T05:33:06.112Z,39.70
2018-08-11T05:35:37.754Z,40.50
2018-08-11T05:38:07.546Z,41.28
2018-08-11T05:40:37.815Z,39.49
2018-08-11T05:43:08.085Z,39.53
2018-08-11T05:45:38.009Z,39.30
2018-08-11T05:48:07.840Z,38.47
2018-08-11T05:50:38.701Z,38.90
2018-08-11T05:53:08.445Z,38.80
2018-08-11T05:55:40.151Z,38.26
2018-08-11T05:58:09.966Z,41.62
2018-08-11T06:00:41.191Z,42.86
2018-08-11T06:03:11.400Z,42.96
2018-08-11T06:05:41.099Z,43.94
2018-08-11T06:08:10.802Z,44.26
2018-08-11T06:10:40.663Z,43.57
2018-08-11T06:13:10.453Z,40.13
2018-08-11T06:15:40.650Z,39.10
2018-08-11T06:18:10.919Z,39.72
2018-08-11T06:20:41.342Z,41.56
2018-08-11T06:23:13.549Z,39.82
2018-08-11T06:25:43.944Z,35.88
2018-08-11T06:28:14.151Z,38.57
2018-08-11T06:30:44.133Z,38.65
2018-08-11T06:33:14.189Z,42.58
2018-08-11T06:35:44.446Z,39.63
2018-08-11T06:38:14.843Z,38.75
2018-08-11T06:40:46.330Z,38.02
2018-08-11T06:43:16.971Z,43.29
2018-08-11T06:45:47.267Z,43.41
2018-08-11T06:48:17.622Z,38.70
2018-08-11T06:50:52.094Z,37.02
2018-08-11T06:53:23.875Z,38.12
2018-08-11T06:55:56.405Z,38.99
2018-08-11T06:58:26.811Z,40.80
2018-08-11T07:00:56.992Z,41.36
2018-08-11T07:03:27.334Z,42.54
2018-08-11T07:05:59.411Z,43.73
2018-08-11T07:08:31.139Z,41.66
2018-08-11T07:11:01.453Z,40.76
2018-08-11T07:13:31.557Z,39.58
2018-08-11T07:16:01.620Z,41.52
2018-08-11T07:18:31.332Z,40.56
2018-08-11T07:21:01.398Z,39.81
2018-08-11T07:23:31.141Z,40.19
2018-08-11T07:26:00.932Z,39.16
2018-08-11T07:28:34.145Z,39.40
2018-08-11T07:31:05.036Z,42.47
2018-08-11T07:33:34.904Z,41.34
2018-08-11T07:36:04.725Z,40.16
2018-08-11T07:38:34.535Z,40.01
2018-08-11T07:41:04.750Z,41.08
2018-08-11T07:43:35.495Z,43.98
2018-08-11T07:46:07.120Z,44.47
2018-08-11T07:48:38.692Z,43.76
2018-08-11T07:51:09.438Z,45.45
2018-08-11T07:53:39.628Z,49.10
2018-08-11T07:56:09.985Z,50.52
2018-08-11T07:58:40.320Z,51.70
2018-08-11T08:01:11.106Z,51.42
2018-08-11T08:03:41.583Z,52.28
2018-08-11T08:06:11.515Z,52.42
2018-08-11T08:08:41.215Z,53.30
2018-08-11T08:11:10.966Z,52.38
2018-08-11T08:13:40.749Z,53.17
2018-08-11T08:16:10.559Z,53.40
2018-08-11T08:18:41.090Z,52.86
2018-08-11T08:21:10.958Z,54.64
2018-08-11T08:23:40.797Z,54.59
2018-08-11T08:26:10.744Z,53.52
2018-08-11T08:28:40.668Z,54.30
2018-08-11T08:31:11.282Z,54.61
2018-08-11T08:33:43.600Z,55.12
2018-08-11T08:36:13.457Z,52.71
2018-08-11T08:38:43.656Z,52.01
2018-08-11T08:41:14.109Z,52.53
2018-08-11T08:43:45.742Z,52.41
2018-08-11T08:46:16.007Z,54.54
2018-08-11T08:48:46.366Z,53.64
2018-08-11T08:51:17.331Z,52.79
2018-08-11T08:53:48.175Z,53.54
2018-08-11T08:56:18.709Z,54.90
2018-08-11T08:58:53.142Z,52.19
2018-08-11T09:01:23.391Z,52.58
2018-08-11T09:03:54.537Z,53.60
2018-08-11T09:06:26.537Z,51.28
2018-08-11T09:08:56.857Z,52.33
2018-08-11T09:11:28.070Z,51.23
2018-08-11T09:13:58.566Z,50.76
2018-08-11T09:16:28.905Z,50.64
2018-08-11T09:18:59.157Z,50.30
2018-08-11T09:21:39.374Z,49.66
2018-08-11T09:24:18.485Z,50.68
2018-08-11T09:26:48.144Z,51.50
2018-08-11T09:29:17.953Z,50.19
2018-08-11T09:31:47.760Z,51.49
2018-08-11T09:34:17.439Z,52.10
2018-08-11T09:36:47.282Z,48.83
2018-08-11T09:39:17.013Z,49.12
2018-08-11T09:41:47.083Z,48.13
2018-08-11T09:44:16.855Z,47.64
2018-08-11T09:46:46.556Z,48.99
2018-08-11T09:49:16.423Z,47.26
2018-08-11T09:51:46.290Z,44.34
2018-08-11T09:54:19.920Z,45.21
2018-08-11T09:56:50.739Z,46.64
2018-08-11T09:59:20.432Z,46.12
2018-08-11T10:01:55.789Z,46.51
2018-08-11T10:04:25.554Z,45.49
2018-08-11T10:06:56.184Z,45.99
2018-08-11T10:09:26.472Z,45.51
2018-08-11T10:11:56.246Z,45.96
2018-08-11T10:14:26.117Z,45.89
2018-08-11T10:16:55.952Z,46.93
2018-08-11T10:19:27.507Z,47.24
2018-08-11T10:21:57.255Z,47.91
2018-08-11T10:24:26.966Z,44.97
2018-08-11T10:26:57.316Z,47.22
2018-08-11T10:29:31.782Z,46.79
2018-08-11T10:32:01.528Z,46.95
2018-08-11T10:34:31.953Z,46.99
2018-08-11T10:37:01.777Z,47.53
2018-08-11T10:39:31.672Z,47.19
2018-08-11T10:42:01.617Z,48.03
2018-08-11T10:44:31.315Z,50.73
2018-08-11T10:47:01.755Z,51.04
2018-08-11T10:49:34.711Z,50.64
2018-08-11T10:52:04.713Z,53.73
2018-08-11T10:54:34.485Z,51.77
2018-08-11T10:57:05.786Z,51.06
2018-08-11T10:59:35.690Z,50.69
2018-08-11T11:02:08.953Z,50.51
2018-08-11T11:04:41.210Z,50.61
2018-08-11T11:07:11.355Z,50.72
2018-08-11T11:10:00.226Z,50.25
2018-08-11T11:12:30.119Z,47.66
2018-08-11T11:14:59.859Z,47.69
2018-08-11T11:17:30.000Z,48.20
2018-08-11T11:20:00.114Z,47.62
2018-08-11T11:22:29.969Z,49.09
2018-08-11T11:24:59.818Z,48.58
2018-08-11T11:27:29.459Z,47.72
2018-08-11T11:30:00.213Z,47.99
2018-08-11T11:32:29.967Z,48.62
2018-08-11T11:35:00.195Z,48.63
2018-08-11T11:37:30.970Z,48.61
2018-08-11T11:40:00.853Z,48.69
2018-08-11T11:42:30.510Z,48.02
2018-08-11T11:45:00.214Z,47.80
2018-08-11T11:47:29.981Z,48.42
2018-08-11T11:50:00.724Z,47.29
2018-08-11T11:52:30.742Z,47.40
2018-08-11T11:55:00.622Z,48.09
2018-08-11T11:57:30.332Z,49.00
2018-08-11T12:00:00.176Z,47.42
2018-08-11T12:02:31.676Z,48.54
2018-08-11T12:05:02.397Z,48.56
2018-08-11T12:07:32.275Z,48.42
2018-08-11T12:10:02.168Z,48.94
2018-08-11T12:12:33.769Z,48.55
2018-08-11T12:15:05.114Z,48.36
2018-08-11T12:17:34.887Z,49.12
2018-08-11T12:20:05.733Z,47.74
2018-08-11T12:22:36.392Z,49.03
2018-08-11T12:25:06.905Z,48.72
2018-08-11T12:27:37.017Z,48.62
2018-08-11T12:30:10.391Z,49.22
2018-08-11T12:32:41.766Z,50.09
2018-08-11T12:35:11.580Z,51.28
2018-08-11T12:37:43.018Z,52.08
2018-08-11T12:40:12.791Z,51.99
2018-08-11T12:42:42.575Z,49.53
2018-08-11T12:45:13.328Z,49.53
2018-08-11T12:50:19.801Z,48.66
2018-08-11T12:52:51.855Z,48.34
2018-08-11T12:55:22.550Z,48.26
2018-08-11T12:57:52.336Z,51.70
2018-08-11T13:00:22.820Z,52.62
2018-08-11T13:02:52.639Z,51.86
2018-08-11T13:05:22.478Z,50.74
2018-08-11T13:07:52.289Z,48.85
2018-08-11T13:10:22.170Z,50.76
2018-08-11T13:12:51.956Z,50.04
2018-08-11T13:15:23.204Z,51.62
2018-08-11T13:17:53.041Z,49.71
2018-08-11T13:20:22.844Z,51.38
2018-08-11T13:22:52.869Z,51.47
2018-08-11T13:25:22.704Z,51.84
2018-08-11T13:27:52.325Z,51.82
2018-08-11T13:30:22.043Z,52.62
2018-08-11T13:32:51.780Z,50.65
2018-08-11T13:35:23.359Z,48.51
2018-08-11T13:37:53.317Z,49.16
2018-08-11T13:40:23.148Z,50.52
2018-08-11T13:42:52.994Z,49.44
2018-08-11T13:45:22.902Z,48.92
2018-08-11T13:47:53.180Z,47.78
2018-08-11T13:50:25.626Z,49.14
2018-08-11T13:52:55.576Z,50.71
2018-08-11T13:55:25.428Z,49.41
2018-08-11T13:57:55.361Z,49.37
2018-08-11T14:00:29.268Z,49.00
2018-08-11T14:02:59.960Z,49.11
2018-08-11T14:05:31.271Z,48.64
2018-08-11T14:08:01.305Z,49.34
2018-08-11T14:10:31.825Z,49.22
2018-08-11T14:13:03.882Z,47.13
2018-08-11T14:15:33.755Z,46.96
2018-08-11T14:18:06.502Z,47.73
2018-08-11T14:20:38.460Z,46.67
2018-08-11T14:23:09.375Z,47.45
2018-08-11T14:25:39.555Z,48.61
2018-08-11T14:28:09.890Z,49.63
2018-08-11T14:30:40.117Z,49.92
2018-08-11T14:33:10.275Z,50.81
2018-08-11T14:35:41.505Z,49.42
2018-08-11T14:38:12.499Z,49.66
2018-08-11T14:40:43.628Z,50.25
2018-08-11T14:43:13.985Z,50.72
2018-08-11T14:45:45.396Z,50.43
2018-08-11T14:48:15.514Z,49.29
2018-08-11T14:50:45.905Z,49.60
2018-08-11T14:53:16.228Z,50.61
2018-08-11T14:55:47.243Z,52.35
2018-08-11T14:58:17.551Z,51.32
2018-08-11T15:00:47.724Z,51.34
2018-08-11T15:03:17.908Z,51.69
2018-08-11T15:05:49.399Z,52.09
2018-08-11T15:08:19.603Z,52.88
2018-08-11T15:10:49.873Z,53.07
2018-08-11T15:13:19.930Z,52.08
2018-08-11T15:15:50.458Z,52.26
2018-08-11T15:18:20.568Z,53.41
2018-08-11T15:20:51.004Z,53.63
2018-08-11T15:23:21.435Z,53.53
2018-08-11T15:25:51.715Z,51.29
2018-08-11T15:28:22.841Z,51.90
2018-08-11T15:30:54.171Z,52.99
2018-08-11T15:33:24.503Z,52.76
2018-08-11T15:35:54.587Z,52.53
2018-08-11T15:38:25.208Z,52.93
2018-08-11T15:40:55.232Z,53.44
2018-08-11T15:43:25.526Z,54.37
2018-08-11T15:45:55.573Z,52.80
2018-08-11T15:48:26.896Z,52.69
2018-08-11T15:51:02.937Z,53.08
2018-08-11T15:53:33.382Z,54.59
2018-08-11T15:56:04.216Z,55.07
2018-08-11T15:58:42.297Z,55.00
2018-08-11T16:01:17.465Z,56.00
2018-08-11T16:03:49.685Z,56.46
2018-08-11T16:06:21.130Z,56.96
2018-08-11T16:08:51.968Z,57.58
2018-08-11T16:11:22.901Z,56.66
2018-08-11T16:13:52.834Z,56.21
2018-08-11T16:16:27.092Z,56.59
2018-08-11T16:19:03.556Z,56.97
2018-08-11T16:21:33.429Z,56.87
2018-08-11T16:24:04.220Z,57.50
2018-08-11T16:26:44.958Z,56.64
2018-08-11T16:29:15.853Z,57.05
2018-08-11T16:34:20.613Z,56.43
2018-08-11T16:36:50.475Z,57.39
2018-08-11T16:39:20.504Z,57.42
2018-08-11T16:41:50.363Z,56.51
2018-08-11T16:44:40.883Z,56.92
2018-08-11T16:47:17.958Z,57.52
2018-08-11T16:49:49.244Z,58.95
2018-08-11T16:52:21.096Z,58.82
2018-08-11T16:54:50.844Z,58.49
2018-08-11T16:57:20.678Z,58.58
2018-08-11T16:59:50.957Z,58.76
2018-08-11T17:02:20.858Z,58.49
2018-08-11T17:04:50.742Z,59.29
2018-08-11T17:07:20.688Z,60.10
2018-08-11T17:09:50.669Z,59.28
2018-08-11T17:12:20.911Z,60.56
2018-08-11T17:14:51.429Z,59.54
2018-08-11T17:17:21.252Z,60.26
2018-08-11T17:19:50.992Z,60.02
2018-08-11T17:22:21.448Z,59.91
2018-08-11T17:24:51.168Z,60.08
2018-08-11T17:27:21.022Z,60.55
2018-08-11T17:29:50.995Z,60.66
2018-08-11T17:32:20.911Z,60.53
2018-08-11T17:34:50.714Z,61.28
2018-08-11T17:37:21.138Z,61.28
2018-08-11T17:39:50.882Z,61.57
2018-08-11T17:42:20.671Z,62.08
2018-08-11T17:44:50.427Z,61.82
2018-08-11T17:47:20.176Z,62.14
2018-08-11T17:49:49.981Z,62.59
2018-08-11T17:52:19.757Z,61.89
2018-08-11T17:54:49.550Z,62.50
2018-08-11T17:57:20.105Z,62.32
2018-08-11T17:59:49.800Z,63.21
2018-08-11T18:02:21.305Z,63.94
2018-08-11T18:04:52.244Z,63.85
2018-08-11T18:07:22.070Z,63.45
2018-08-11T18:09:52.319Z,63.59
2018-08-11T18:12:22.765Z,63.45
2018-08-11T18:14:52.594Z,63.59
2018-08-11T18:17:22.461Z,64.76
2018-08-11T18:19:53.399Z,64.60
2018-08-11T18:22:23.149Z,64.11
2018-08-11T18:24:53.811Z,65.55
2018-08-11T18:27:23.780Z,64.00
2018-08-11T18:29:53.986Z,64.45
2018-08-11T18:32:23.782Z,65.15
2018-08-11T18:34:53.574Z,65.20
2018-08-11T18:37:23.833Z,65.48
2018-08-11T18:39:53.553Z,66.62
2018-08-11T18:42:24.152Z,67.06
2018-08-11T18:44:53.955Z,67.60
2018-08-11T18:47:23.935Z,67.42
2018-08-11T18:49:53.799Z,68.19
2018-08-11T18:52:24.182Z,68.03
2018-08-11T18:54:54.231Z,67.97
2018-08-11T18:57:24.872Z,68.66
2018-08-11T18:59:56.679Z,68.63
2018-08-11T19:02:26.761Z,68.78
2018-08-11T19:04:57.996Z,68.71
2018-08-11T19:07:27.831Z,69.46
2018-08-11T19:09:58.521Z,70.24
2018-08-11T19:12:28.413Z,70.11
2018-08-11T19:14:59.074Z,70.57
2018-08-11T19:17:28.950Z,70.93
2018-08-11T19:20:02.174Z,70.77
2018-08-11T19:22:32.027Z,71.58
2018-08-11T19:25:04.900Z,71.58
2018-08-11T19:27:37.679Z,71.28
2018-08-11T19:30:10.538Z,72.12
2018-08-11T19:32:41.029Z,71.62
2018-08-11T19:35:13.464Z,72.65
2018-08-11T19:37:44.240Z,72.58
2018-08-11T19:40:14.077Z,72.63
2018-08-11T19:42:44.542Z,73.47
2018-08-11T19:45:14.285Z,74.10
2018-08-11T19:47:44.145Z,73.53
2018-08-11T19:50:14.234Z,74.50
2018-08-11T19:52:44.859Z,73.64
2018-08-11T19:55:17.940Z,74.12
2018-08-11T19:57:51.080Z,74.71
2018-08-11T20:00:21.013Z,74.05
2018-08-11T20:02:52.878Z,74.15
2018-08-11T20:05:23.569Z,73.92
2018-08-11T20:07:56.088Z,74.36
2018-08-11T20:10:28.239Z,74.70
2018-08-11T20:12:57.975Z,74.34
2018-08-11T20:15:27.794Z,74.50
2018-08-11T20:17:57.591Z,74.66
2018-08-11T20:20:28.063Z,75.39
2018-08-11T20:22:59.772Z,75.41
2018-08-11T20:25:32.376Z,75.53
2018-08-11T20:28:02.969Z,75.19
2018-08-11T20:30:34.817Z,74.86
2018-08-11T20:33:07.845Z,75.18
2018-08-11T20:35:37.665Z,75.05
2018-08-11T20:38:10.997Z,75.46
2018-08-11T20:40:40.901Z,75.74
2018-08-11T20:43:11.942Z,75.51
2018-08-11T20:45:43.193Z,76.14
2018-08-11T20:48:15.887Z,75.65
2018-08-11T20:50:45.671Z,75.71
2018-08-11T20:53:15.508Z,75.87
2018-08-11T20:55:45.783Z,75.92
2018-08-11T20:58:15.765Z,75.72
2018-08-11T21:00:46.007Z,75.81
2018-08-11T21:03:15.796Z,76.13
2018-08-11T21:05:46.785Z,75.81
2018-08-11T21:08:17.516Z,75.53
2018-08-11T21:10:47.311Z,75.81
2018-08-11T21:13:17.036Z,75.96
2018-08-11T21:15:46.830Z,75.93
2018-08-11T21:18:16.677Z,76.17
2018-08-11T21:20:46.476Z,75.74
2018-08-11T21:23:16.412Z,76.38
2018-08-11T21:25:46.374Z,76.72
2018-08-11T21:28:16.601Z,77.28
2018-08-11T21:30:46.651Z,78.00
2018-08-11T21:33:16.521Z,77.81
2018-08-11T21:35:46.387Z,78.05
2018-08-11T21:38:16.214Z,77.54
2018-08-11T21:40:47.494Z,78.01
2018-08-11T21:43:17.469Z,77.43
2018-08-11T21:45:47.209Z,77.67
2018-08-11T21:48:17.018Z,77.91
2018-08-11T21:50:46.715Z,77.55
2018-08-11T21:53:17.951Z,78.00
2018-08-11T21:55:47.670Z,79.03
2018-08-11T21:58:17.451Z,78.93
2018-08-11T22:00:59.638Z,78.01
2018-08-11T22:03:31.118Z,77.85
2018-08-11T22:06:08.661Z,77.12
2018-08-11T22:08:38.715Z,77.64
2018-08-11T22:11:08.617Z,76.90
2018-08-11T22:13:39.508Z,76.30
2018-08-11T22:16:10.518Z,76.76
2018-08-11T22:18:40.148Z,76.11
2018-08-11T22:21:09.968Z,76.05
2018-08-11T22:23:39.699Z,76.39
2018-08-11T22:26:09.627Z,77.07
2018-08-11T22:28:41.622Z,77.23
2018-08-11T22:31:11.531Z,77.05
2018-08-11T22:33:42.199Z,76.80
2018-08-11T22:36:12.657Z,77.71
2018-08-11T22:38:43.746Z,78.03
2018-08-11T22:41:13.451Z,77.33
2018-08-11T22:43:43.185Z,77.22
2018-08-11T22:46:13.056Z,76.47
2018-08-11T22:48:43.161Z,77.20
2018-08-11T22:51:12.964Z,77.43
2018-08-11T22:53:44.061Z,76.47
2018-08-11T22:56:14.132Z,77.33
2018-08-11T22:58:44.842Z,77.23
2018-08-11T23:01:14.805Z,77.80
2018-08-11T23:03:53.165Z,77.40
2018-08-11T23:06:23.308Z,76.10
2018-08-11T23:08:54.685Z,76.61
2018-08-11T23:11:24.569Z,76.04
2018-08-11T23:13:57.230Z,76.76
2018-08-11T23:16:27.526Z,77.33
2018-08-11T23:18:58.583Z,77.22
2018-08-11T23:21:28.296Z,78.29
2018-08-11T23:23:58.081Z,77.23
2018-08-11T23:26:27.915Z,77.28
2018-08-11T23:28:57.629Z,78.25
2018-08-11T23:31:27.365Z,78.04
2018-08-11T23:33:57.028Z,78.27
2018-08-11T23:36:26.765Z,78.05
2018-08-11T23:38:56.483Z,78.40
2018-08-11T23:41:26.288Z,78.15
2018-08-11T23:43:56.185Z,77.11
2018-08-11T23:46:25.883Z,77.97
2018-08-11T23:48:55.903Z,77.84
2018-08-11T23:51:25.834Z,78.12
2018-08-11T23:53:56.467Z,78.34
2018-08-11T23:56:26.188Z,79.21
2018-08-11T23:58:55.931Z,79.46
